Date,TemperatureHighF,TemperatureAvgF,TemperatureLowF,DewpointHighF,DewpointAvgF,DewpointLowF,HumidityHigh,HumidityAvg,HumidityLow,PressureMaxIn,PressureMinIn,WindSpeedMaxMPH,WindSpeedAvgMPH,GustSpeedMaxMPH,PrecipitationSumIn
2013-1-1,50.5,40.5,32.3,38.1,31.5,25.5,93,72,48,30.41,30.25,2,0,8,0.00
2013-1-2,56.0,45.2,40.2,34.1,27.6,24.9,59,50,40,30.25,30.11,2,1,7,0.00
2013-1-3,51.0,44.7,39.6,48.8,33.0,24.3,96,65,46,30.22,30.06,4,1,8,0.25
2013-1-4,51.5,47.6,42.6,49.3,46.0,41.3,96,94,89,30.33,30.14,4,0,6,0.19
2013-1-5,51.2,45.5,42.9,44.8,42.6,40.4,95,90,76,30.20,30.10,2,0,5,0.08
2013-1-6,49.9,44.3,38.0,47.4,42.4,36.7,96,93,85,30.23,30.05,2,0,5,0.36
2013-1-7,51.3,49.3,46.9,50.2,48.1,45.5,97,96,95,30.23,30.00,11,3,13,0.99
2013-1-8,52.1,50.5,46.0,51.0,48.9,44.9,97,94,82,30.22,29.91,12,6,21,0.81
2013-1-9,52.1,43.6,36.9,47.9,40.5,35.2,96,89,73,30.00,29.73,12,3,16,0.87
2013-1-10,44.9,38.4,34.4,41.9,36.5,33.1,96,93,81,30.14,30.00,2,0,4,0.38
2013-1-11,44.4,35.4,30.0,36.8,31.8,28.2,97,88,56,30.33,30.13,4,0,5,0.09
2013-1-12,45.6,33.8,28.2,36.3,29.8,26.4,94,86,57,30.43,30.31,2,0,4,0.00
2013-1-13,42.9,32.5,26.2,32.3,28.2,24.5,94,85,61,30.49,30.42,3,0,3,0.00
2013-1-14,41.6,36.7,30.7,40.0,34.8,28.4,95,93,90,30.56,30.49,1,0,2,0.12
2013-1-15,48.1,41.5,38.3,43.5,39.5,36.7,96,93,82,30.66,30.55,3,0,4,0.05
2013-1-16,48.0,38.5,31.7,43.5,36.3,30.4,96,92,81,30.63,30.43,2,0,4,0.00
2013-1-17,57.3,42.3,32.8,48.6,37.2,30.7,94,83,60,30.43,30.25,2,1,4,0.01
2013-1-18,52.3,42.7,35.8,45.0,37.5,32.6,88,82,67,30.26,30.22,3,1,4,0.00
2013-1-19,51.1,42.9,36.0,46.5,38.3,30.3,93,84,64,30.32,30.23,3,0,4,0.00
2013-1-20,46.4,39.9,35.4,43.2,37.9,33.8,96,93,87,30.33,30.21,3,0,4,0.00
2013-1-21,52.5,40.7,33.2,44.9,35.1,29.7,93,81,57,30.22,30.08,3,0,4,0.00
2013-1-22,62.5,45.2,34.6,42.2,34.8,29.4,85,68,40,30.10,29.90,2,0,3,0.00
2013-1-23,48.0,45.4,42.4,46.4,41.9,36.1,96,88,65,30.20,29.86,6,0,9,0.66
2013-1-24,51.8,44.2,35.7,47.7,42.5,34.7,97,94,84,30.21,30.07,2,0,5,0.46
2013-1-25,52.3,47.5,42.9,49.0,45.6,41.3,96,93,79,30.12,29.95,3,0,5,0.13
2013-1-26,48.4,43.2,40.4,46.1,41.6,39.1,96,94,89,30.12,29.94,2,0,6,0.86
2013-1-27,45.2,41.8,38.7,44.0,40.5,37.4,96,95,89,30.16,30.06,6,1,10,0.00
2013-1-28,46.8,45.0,43.2,44.8,43.3,40.8,96,94,88,30.26,30.11,9,4,13,0.00
2013-1-29,47.0,46.2,45.4,46.2,45.4,44.3,97,97,96,30.50,30.26,8,4,11,0.00
2013-1-30,49.2,48.3,46.2,48.4,47.5,45.4,98,97,97,30.50,30.46,6,2,9,0.00
2013-1-31,51.4,47.0,42.4,50.8,46.1,41.6,98,96,91,30.49,30.36,4,0,7,0.00
2013-2-1,54.7,47.7,43.8,50.8,45.6,40.8,97,93,83,30.37,30.24,4,0,7,0.00
2013-2-2,59.0,48.6,42.0,47.7,42.6,37.5,92,80,58,30.34,30.23,3,0,7,0.00
2013-2-3,50.5,48.0,46.1,47.7,45.0,43.6,94,89,79,30.34,30.25,1,0,7,0.00
2013-2-4,52.3,47.3,43.7,46.3,44.0,41.8,95,89,77,30.26,29.97,3,0,7,0.00
2013-2-5,52.5,48.5,45.7,47.7,45.3,42.9,96,89,79,30.05,29.90,7,3,11,0.00
2013-2-6,50.8,46.2,40.8,46.8,43.6,39.1,95,91,81,30.09,29.83,8,1,13,0.00
2013-2-7,46.5,41.9,36.6,43.6,39.9,35.3,96,93,85,30.18,29.92,5,0,7,0.00
2013-2-8,49.4,40.0,31.1,42.5,36.6,30.1,97,88,74,30.32,30.18,4,1,7,0.00
2013-2-9,48.1,44.3,39.9,46.2,42.3,37.6,96,93,89,30.32,30.27,3,1,7,0.00
2013-2-10,50.9,45.9,42.3,45.3,42.4,40.1,96,88,71,30.37,30.32,3,0,7,0.00
2013-2-11,48.2,46.1,43.4,46.3,43.2,39.3,96,90,82,30.42,30.34,1,0,7,0.00
2013-2-12,49.7,48.3,47.0,48.6,47.2,45.8,97,96,95,30.50,30.41,8,1,8,0.00
2013-2-13,49.3,47.4,44.9,48.1,45.4,43.3,97,93,83,30.52,30.44,5,1,7,0.00
2013-2-14,52.8,47.7,42.1,50.1,45.9,40.8,96,94,88,30.58,30.50,3,0,7,0.00
2013-2-15,55.7,46.9,40.3,51.0,44.8,39.5,98,93,82,30.50,30.20,4,0,7,0.00
2013-2-16,50.8,46.2,40.7,47.4,44.1,38.6,97,93,82,30.32,30.26,7,2,11,0.00
2013-2-17,47.2,41.8,37.9,43.5,38.9,36.6,96,90,77,30.33,30.10,5,0,7,0.00
2013-2-18,45.8,40.7,36.4,43.1,39.0,35.1,96,94,86,30.10,29.72,1,0,7,0.00
2013-2-19,50.3,41.9,35.7,43.4,38.5,34.1,96,88,72,30.04,29.68,6,1,9,0.00
2013-2-20,46.2,40.0,32.9,43.5,38.3,31.5,96,94,85,30.11,30.03,7,1,9,0.00
2013-2-21,47.8,44.3,41.2,45.6,42.1,38.6,96,92,80,30.21,30.10,11,2,12,0.00
2013-2-22,49.4,46.3,40.9,47.3,43.3,36.0,96,89,70,30.17,29.92,15,5,21,0.06
2013-2-23,48.5,43.9,39.8,40.8,39.0,37.0,93,83,69,30.45,30.10,10,3,18,0.15
2013-2-24,51.7,44.7,39.7,45.4,39.7,37.5,95,83,62,30.45,30.05,5,1,18,0.20
2013-2-25,48.7,44.6,37.6,46.5,39.9,35.7,94,84,65,30.39,30.02,13,5,21,0.27
2013-2-26,52.5,43.1,36.3,43.1,38.6,34.8,96,85,63,30.39,30.24,5,0,18,0.03
2013-2-27,51.8,48.5,44.1,49.1,46.3,39.8,95,92,82,30.29,30.19,1,0,18,0.13
2013-2-28,52.1,51.0,48.5,51.0,49.9,47.1,96,96,95,30.44,30.18,6,2,18,1.45
2013-3-1,55.8,52.4,49.5,53.8,50.8,48.1,96,94,92,30.46,30.33,7,1,18,0.11
2013-3-2,54.5,47.8,41.6,51.9,45.9,39.2,96,93,84,30.34,30.22,6,1,18,0.07
2013-3-3,51.1,41.7,34.1,43.2,38.0,32.8,96,87,69,30.34,30.26,5,1,18,0.01
2013-3-4,62.5,44.5,32.6,43.9,36.4,31.1,95,76,35,30.25,29.90,4,0,18,0.01
2013-3-5,45.7,43.4,41.7,44.4,41.8,39.2,96,94,89,29.90,29.63,5,0,18,0.49
2013-3-6,48.5,44.8,41.8,45.4,43.0,40.7,96,94,85,29.95,29.57,6,1,18,0.52
2013-3-7,52.2,45.9,38.5,45.9,42.1,36.9,96,87,72,30.07,29.95,6,1,18,0.10
2013-3-8,56.8,43.5,34.1,48.0,40.2,32.8,97,89,65,30.24,30.05,5,1,18,0.01
2013-3-9,51.6,42.5,34.8,45.6,39.8,33.5,97,90,78,30.52,30.24,4,1,18,0.01
2013-3-10,48.8,44.0,36.5,47.4,42.3,34.7,96,94,92,30.52,30.43,1,0,18,0.17
2013-3-11,52.9,49.6,47.4,51.8,48.5,46.3,97,96,94,30.45,30.25,2,0,18,0.25
2013-3-12,56.6,51.8,49.2,52.7,49.3,47.2,97,91,77,30.25,30.19,4,0,18,0.01
2013-3-13,57.4,51.4,47.8,52.9,48.2,46.2,95,89,77,30.25,30.12,4,0,18,0.00
2013-3-14,52.2,49.9,47.7,49.9,47.3,45.4,96,91,81,30.22,30.08,6,1,18,0.31
2013-3-15,54.6,50.7,47.7,52.7,49.4,46.6,96,95,90,30.27,30.22,5,1,18,0.02
2013-3-16,48.9,46.8,43.0,47.1,44.1,37.7,97,90,76,30.22,30.08,10,3,18,0.26
2013-3-17,47.6,43.6,39.6,41.8,38.3,33.9,93,82,70,30.33,30.17,8,2,18,0.07
2013-3-18,50.2,44.0,39.4,44.8,41.0,37.9,96,90,76,30.31,30.14,5,1,18,0.16
2013-3-19,52.0,46.5,40.9,50.0,42.7,36.7,96,87,73,30.14,29.64,9,0,18,0.70
2013-3-20,53.1,48.1,40.6,49.9,43.9,35.4,94,86,66,30.18,29.53,16,9,23,0.31
2013-3-21,47.6,43.0,39.0,41.1,38.3,36.1,93,84,72,30.34,30.18,13,3,18,0.13
2013-3-22,46.9,40.7,34.9,40.8,36.2,33.1,94,84,71,30.42,30.33,6,1,18,0.12
2013-3-23,49.4,41.3,35.2,41.2,36.6,32.6,94,84,60,30.42,30.29,4,1,18,0.00
2013-3-24,52.3,44.7,39.0,41.8,38.4,35.3,91,79,56,30.30,30.11,4,1,18,0.00
2013-3-25,53.4,46.1,40.1,46.4,41.0,37.0,93,83,65,30.11,29.97,5,1,18,0.04
2013-3-26,50.7,46.6,40.8,48.1,45.0,39.3,96,94,89,30.05,29.98,2,0,18,0.06
2013-3-27,58.3,50.1,44.0,52.5,47.1,42.9,96,90,70,30.01,29.93,3,0,18,0.00
2013-3-28,58.2,52.1,46.4,52.0,49.0,45.0,96,89,76,30.17,30.01,4,1,18,0.00
2013-3-29,64.5,53.2,48.1,54.5,49.6,46.5,95,88,70,30.24,30.16,4,1,18,0.00
2013-3-30,76.3,57.3,45.9,55.5,50.1,44.4,96,79,46,30.19,29.97,4,1,18,0.01
2013-3-31,59.8,53.0,45.5,53.8,49.3,43.9,96,87,76,30.05,29.97,5,1,18,0.00
2013-4-1,55.4,52.5,50.8,51.6,50.0,49.1,95,91,86,30.21,30.05,3,0,5,0.01
2013-4-2,54.6,51.2,48.2,51.5,49.0,46.8,96,92,84,30.25,30.20,3,1,6,0.01
2013-4-3,59.3,52.1,43.7,53.3,48.6,41.8,95,88,77,30.20,29.92,2,0,3,0.00
2013-4-4,57.7,53.7,51.1,55.2,51.9,49.4,96,94,87,29.91,29.68,11,3,17,0.48
2013-4-5,53.3,52.4,51.4,51.3,50.4,48.9,95,93,90,29.97,29.84,9,6,18,0.48
2013-4-8,54.6,48.4,42.8,48.0,44.4,41.3,97,86,72,30.32,30.13,5,1,8,0.15
2013-4-9,56.9,48.7,41.3,48.8,44.7,39.4,95,86,67,30.37,30.25,1,0,3,0.00
2013-4-10,55.2,51.1,47.4,50.7,47.7,44.6,96,88,76,30.36,30.15,11,3,16,0.28
2013-4-11,54.3,48.0,41.0,47.6,43.7,38.3,95,86,70,30.38,30.20,6,2,11,0.02
2013-4-12,51.2,44.3,36.1,46.8,40.9,34.5,95,88,72,30.21,29.90,7,1,9,0.12
2013-4-13,49.2,45.5,40.7,44.7,40.2,34.4,92,82,65,30.12,29.98,11,4,17,0.22
2013-4-14,51.8,45.1,41.8,44.9,41.5,38.7,95,87,73,30.11,29.98,5,1,9,0.18
2013-4-15,54.1,45.7,39.8,46.1,41.3,38.0,95,85,67,30.21,29.99,5,1,7,0.17
2013-4-16,54.4,46.6,38.0,47.7,42.4,36.3,95,86,74,30.43,30.22,5,1,10,0.00
2013-4-17,54.7,48.0,40.1,48.6,43.8,38.2,95,86,74,30.52,30.43,5,1,8,0.00
2013-4-18,57.1,49.9,45.3,49.0,45.4,41.2,95,85,70,30.51,30.35,5,0,7,0.14
2013-4-19,51.8,50.3,48.3,50.4,49.1,47.3,97,96,94,30.35,30.19,10,3,14,0.86
2013-4-20,54.5,49.4,45.6,49.1,46.5,44.5,97,90,75,30.40,30.34,5,2,7,0.00
2013-4-21,53.5,48.7,44.4,49.8,46.3,41.4,96,92,83,30.35,30.30,4,1,5,0.03
2013-4-22,67.9,52.1,37.0,50.1,41.4,33.9,96,71,32,30.43,30.35,5,1,8,0.01
2013-4-23,62.6,51.0,39.6,48.7,41.2,35.8,91,71,40,30.40,30.19,6,2,8,0.00
2013-4-24,75.5,59.4,42.0,49.4,42.8,36.7,93,58,30,30.24,30.04,3,1,7,0.00
2013-4-25,61.4,52.2,43.4,53.4,47.1,41.0,93,83,72,30.20,30.05,6,1,10,0.00
2013-4-26,64.8,51.7,45.7,52.8,47.9,44.1,95,87,60,30.29,30.19,7,1,10,0.00
2013-4-27,57.0,50.2,40.9,50.8,46.7,39.0,94,88,77,30.34,30.26,7,1,9,0.01
2013-4-28,58.0,53.3,50.2,51.8,49.6,47.2,96,87,71,30.32,30.13,9,2,9,0.28
2013-4-29,53.8,49.7,42.4,52.2,43.6,37.6,96,81,59,30.27,30.13,11,3,14,0.05
2013-4-30,53.2,47.0,41.2,43.5,39.2,35.6,92,75,53,30.49,30.27,5,2,7,0.04
2013-5-1,63.4,48.6,34.5,50.6,42.4,32.4,94,80,59,30.53,30.46,5,1,6,0.00
2013-5-2,69.9,56.4,45.2,53.9,45.1,38.6,91,67,47,30.45,30.29,5,1,7,0.00
2013-5-3,71.0,56.1,42.1,55.4,48.0,39.9,94,76,53,30.33,30.15,3,1,6,0.00
2013-5-4,85.9,63.9,45.5,56.8,47.7,39.3,94,61,20,30.15,29.89,4,1,6,0.00
2013-5-5,92.2,70.4,51.1,54.5,43.1,34.6,88,45,15,29.90,29.69,5,1,12,0.00
2013-5-6,63.7,55.2,47.0,55.7,50.5,45.0,94,85,72,29.96,29.81,6,1,12,0.00
2013-5-7,58.0,54.7,52.7,51.6,50.1,48.9,89,85,78,30.08,29.96,4,1,12,0.00
2013-5-8,60.6,54.7,52.5,53.3,50.0,48.7,88,84,76,30.20,30.08,4,1,12,0.00
2013-5-9,62.9,55.1,50.4,55.4,50.6,48.1,93,85,71,30.23,30.14,6,1,8,0.00
2013-5-10,56.7,52.1,49.4,52.6,49.7,48.0,95,92,85,30.26,30.18,4,1,7,0.00
2013-5-11,65.2,56.8,50.0,58.2,52.0,48.1,94,84,65,30.26,30.06,4,1,5,0.00
2013-5-12,65.7,59.7,56.6,57.7,55.8,54.2,94,87,74,30.17,30.08,5,1,7,0.01
2013-5-13,58.9,55.7,48.6,55.0,52.7,45.8,95,90,79,30.24,30.04,10,2,13,0.12
2013-5-14,59.8,52.6,45.0,51.0,47.1,43.4,95,82,68,30.25,30.15,6,2,10,0.00
2013-5-15,58.4,52.7,44.8,53.9,49.7,42.3,93,90,81,30.15,30.02,0,0,1,0.10
2013-5-16,62.1,56.4,53.6,56.7,52.8,50.5,96,88,75,30.02,29.95,6,1,8,0.04
2013-5-17,58.7,55.2,50.3,52.6,50.8,48.6,94,85,73,30.12,30.01,7,1,8,0.08
2013-5-18,57.0,54.1,50.2,55.3,52.1,48.5,96,93,87,30.31,30.11,2,0,3,0.66
2013-5-19,57.5,53.8,47.6,52.5,49.1,44.4,96,85,74,30.47,30.31,5,2,7,0.00
2013-5-20,61.2,51.7,42.0,53.6,47.3,40.4,96,86,73,30.39,29.98,5,1,11,0.10
2013-5-21,50.7,47.9,44.2,48.1,45.4,40.8,95,91,76,29.99,29.89,13,2,17,0.87
2013-5-22,52.8,48.7,44.1,50.2,46.7,42.3,96,93,85,29.98,29.93,10,2,15,0.84
2013-5-23,51.0,50.0,48.0,49.9,49.0,46.9,97,96,96,30.01,29.97,5,1,6,2.27
2013-5-24,58.5,52.3,48.6,51.9,49.5,47.8,97,90,74,30.11,29.98,6,2,9,0.25
2013-5-25,59.0,54.4,49.8,52.4,50.0,48.3,95,85,72,30.10,29.96,4,0,5,0.03
2013-5-26,56.4,53.8,52.2,52.8,51.3,49.8,96,91,84,30.08,29.94,4,1,7,0.21
2013-5-27,57.4,53.9,51.6,55.5,52.1,49.8,96,93,89,29.98,29.73,7,1,11,1.82
2013-5-28,58.1,53.6,50.8,53.1,51.0,49.2,96,91,78,29.97,29.74,4,1,8,0.52
2013-5-29,58.3,53.3,49.9,53.3,50.8,48.0,96,91,78,30.07,29.60,7,2,10,0.67
2013-5-30,60.7,54.0,49.0,52.8,50.2,47.6,96,87,66,30.29,30.07,6,1,9,0.07
2013-5-31,63.1,54.9,46.2,54.6,50.4,44.8,96,85,69,30.35,30.26,5,1,7,0.00
2013-6-1,63.0,55.9,48.6,56.5,51.9,47.2,95,87,70,30.27,30.09,4,1,7,0.02
2013-6-2,62.7,57.4,52.9,56.4,52.9,49.4,92,85,76,30.15,30.08,5,2,7,0.00
2013-6-3,63.0,57.0,51.3,55.3,51.2,48.7,91,81,71,30.15,30.10,5,2,13,0.00
2013-6-4,75.0,59.2,46.2,61.3,52.7,44.8,95,80,53,30.12,30.02,3,1,5,0.00
2013-6-5,67.1,58.4,50.9,59.7,54.6,49.3,96,87,77,30.12,30.05,4,1,5,0.00
2013-6-6,64.9,57.7,53.1,56.9,53.5,50.8,94,86,71,30.11,30.05,6,1,10,0.00
2013-6-7,62.6,56.4,48.9,57.7,52.8,47.4,95,88,76,30.20,30.10,4,1,7,0.00
2013-6-8,65.9,57.4,49.1,55.4,50.9,45.9,92,80,68,30.20,30.12,4,2,6,0.00
2013-6-9,62.9,57.4,53.8,53.4,50.0,48.0,85,77,63,30.15,30.12,5,1,8,0.00
2013-6-10,59.6,54.3,51.3,48.5,46.4,45.3,83,75,66,30.03,29.99,3,1,4,0.00
2013-6-11,60.4,54.8,50.2,53.5,50.2,45.7,93,85,74,30.18,30.02,7,1,9,0.25
2013-6-12,59.9,55.0,51.5,53.6,51.7,50.1,96,89,75,30.22,30.15,6,1,8,0.53
2013-6-13,63.2,57.2,52.6,56.4,53.0,51.0,96,86,73,30.31,30.17,5,1,7,0.42
2013-6-14,64.8,58.7,52.7,57.3,53.7,50.7,94,84,72,30.31,29.99,4,1,6,0.01
2013-6-15,66.8,58.4,49.1,60.3,54.1,47.4,95,86,76,30.06,29.94,5,1,8,0.00
2013-6-16,64.2,61.1,57.7,57.5,55.1,53.0,87,81,72,30.14,30.06,4,1,6,0.00
2013-6-17,66.7,59.3,54.3,59.1,54.4,50.8,94,84,69,30.13,30.02,6,1,6,0.10
2013-6-18,60.8,56.5,50.9,55.9,53.2,49.2,94,89,80,30.02,29.98,5,0,10,0.05
2013-6-19,63.0,57.7,50.9,55.8,53.3,48.9,95,86,73,30.11,29.97,7,2,10,0.02
2013-6-20,64.3,58.8,54.4,58.2,54.5,51.5,96,86,72,30.17,30.07,5,1,8,0.54
2013-6-21,65.6,59.5,54.2,57.7,54.5,51.4,93,84,72,30.19,30.13,5,1,7,0.00
2013-6-22,71.0,61.1,50.7,60.6,55.3,49.3,96,82,61,30.13,29.88,3,1,5,0.01
2013-6-23,64.8,61.4,58.5,62.4,59.4,56.5,96,93,87,29.88,29.64,8,0,11,0.44
2013-6-24,62.6,58.1,55.2,58.2,56.0,54.1,97,93,76,29.73,29.66,9,1,12,0.46
2013-6-25,66.1,60.2,56.8,60.7,57.2,54.8,96,90,74,29.85,29.67,4,0,15,0.40
2013-6-26,66.7,62.2,58.0,62.0,59.2,56.6,96,90,79,30.04,29.84,3,0,6,0.47
2013-6-27,66.6,62.9,60.7,64.0,61.1,59.4,96,94,87,30.20,29.99,3,0,5,0.14
2013-6-28,72.9,65.6,59.7,66.2,62.0,58.5,97,89,72,30.17,30.09,3,1,4,0.01
2013-6-29,77.0,65.4,59.2,66.1,61.3,57.2,95,87,66,30.13,30.00,5,1,8,0.00
2013-6-30,70.2,65.1,59.1,65.5,61.9,57.7,96,90,82,30.01,29.94,5,1,8,0.00
2013-7-1,72.6,65.1,61.1,66.4,61.8,59.4,95,89,80,30.08,29.96,5,1,7,0.00
2013-7-2,71.4,64.9,59.9,64.0,60.0,56.6,93,85,72,30.14,30.07,4,1,6,0.00
2013-7-3,67.9,61.2,54.6,58.8,55.9,52.7,96,83,70,30.17,30.11,5,2,6,0.00
2013-7-4,66.8,60.3,51.6,57.9,54.0,49.5,93,80,67,30.18,30.10,4,2,7,0.00
2013-7-5,66.7,62.1,57.8,59.3,55.4,52.7,84,79,70,30.10,30.02,5,2,7,0.00
2013-7-6,66.4,59.7,53.9,59.0,54.7,50.8,92,84,76,30.03,29.92,6,2,7,0.00
2013-7-7,65.4,61.0,55.8,58.4,55.7,53.5,93,83,74,30.02,29.96,5,1,9,0.00
2013-7-8,67.3,61.5,57.1,59.1,55.2,52.5,93,80,72,30.11,30.02,4,1,7,0.00
2013-7-9,68.4,60.6,54.4,60.8,56.7,52.2,96,87,73,30.12,30.06,4,1,6,0.00
2013-7-10,65.5,58.7,52.1,56.7,52.6,49.1,96,81,66,30.11,30.02,5,2,7,0.01
2013-7-11,58.3,54.7,51.2,49.5,48.5,47.7,88,80,68,30.08,30.03,1,0,6,0.00
2013-7-12,65.1,56.8,45.9,55.6,50.2,44.0,94,79,63,30.14,30.04,5,1,7,0.00
2013-7-13,68.0,57.7,45.6,57.7,51.5,43.4,94,80,68,30.19,30.08,4,1,7,0.00
2013-7-14,69.4,58.7,50.7,58.6,52.8,49.1,96,82,59,30.13,30.03,3,1,6,0.00
2013-7-15,78.8,60.0,49.7,62.0,53.3,47.8,95,81,48,30.07,29.84,5,1,9,0.00
2013-7-16,67.2,58.6,52.4,60.0,55.3,50.6,95,89,77,30.03,29.79,4,1,6,0.02
2013-7-17,65.6,60.7,57.7,59.2,56.6,54.3,94,86,77,30.22,30.03,3,1,6,0.00
2013-7-18,67.4,61.5,54.3,57.6,55.3,51.7,92,81,69,30.23,30.14,5,1,7,0.00
2013-7-19,67.8,58.7,51.1,59.1,54.2,49.4,95,86,71,30.18,30.08,4,1,6,0.00
2013-7-20,67.7,59.5,54.0,58.7,54.8,51.8,93,85,71,30.12,30.01,4,1,7,0.00
2013-7-21,68.7,60.8,54.3,60.2,56.1,52.3,94,85,73,30.03,29.95,4,1,6,0.00
2013-7-22,69.5,61.5,54.0,60.5,56.1,51.9,93,83,70,30.06,29.99,3,1,5,0.00
2013-7-23,65.4,57.3,53.4,58.1,54.0,51.5,96,89,75,30.08,30.01,4,1,6,0.00
2013-7-24,66.3,57.8,52.0,57.7,53.6,50.5,95,86,71,30.10,30.04,4,1,6,0.00
2013-7-25,73.6,60.2,51.9,59.1,54.1,50.5,95,82,56,30.13,30.07,4,1,5,0.00
2013-7-26,67.7,58.0,47.9,57.9,52.5,46.4,96,83,65,30.22,30.10,4,1,5,0.00
2013-7-27,65.1,58.6,51.6,56.1,53.2,49.3,93,82,71,30.23,30.10,5,2,7,0.00
2013-7-28,64.3,58.3,55.0,57.7,54.7,52.2,93,88,77,30.09,30.01,4,1,7,0.01
2013-7-29,63.9,58.5,55.6,58.5,55.1,53.2,94,88,78,30.08,30.00,4,1,7,0.00
2013-7-30,65.4,60.0,55.2,59.2,56.0,52.9,93,87,79,30.18,30.08,7,1,10,0.00
2013-7-31,61.1,59.1,57.7,57.7,56.3,55.3,94,91,87,30.16,30.09,2,1,4,0.00
2013-8-1,60.1,58.3,56.9,58.2,56.7,55.5,96,94,91,30.13,30.08,2,0,2,0.00
2013-8-2,65.5,60.9,57.7,61.0,58.3,56.3,96,91,84,30.16,30.11,4,1,7,0.00
2013-8-3,69.3,62.7,57.3,61.4,58.4,55.4,94,86,75,30.13,30.02,4,1,5,0.01
2013-8-4,65.4,59.2,55.8,59.6,56.6,54.1,96,91,80,30.06,30.00,4,1,7,0.00
2013-8-5,65.1,57.4,54.1,58.1,54.5,52.3,96,90,77,30.08,29.99,4,1,7,0.00
2013-8-6,65.5,56.5,51.6,58.3,53.6,50.2,96,90,76,30.04,29.98,5,1,8,0.00
2013-8-7,65.2,56.1,52.6,58.1,54.1,51.5,96,93,76,30.10,30.01,6,1,8,0.01
2013-8-8,68.9,59.8,54.6,61.8,56.8,53.5,96,90,71,30.08,29.97,4,1,7,0.01
2013-8-9,67.4,59.8,55.0,60.7,56.7,53.3,95,90,78,30.00,29.92,4,0,7,0.00
2013-8-10,61.8,59.1,56.0,58.7,56.9,53.8,95,92,88,30.09,29.96,3,0,7,0.00
2013-8-11,61.9,59.4,57.4,58.8,57.2,56.0,96,92,88,30.09,30.05,3,0,7,0.00
2013-8-12,66.8,61.2,54.8,59.4,57.1,52.2,94,87,74,30.10,30.05,4,1,7,0.00
2013-8-13,73.9,59.6,49.3,60.7,54.4,47.9,96,84,60,30.12,29.96,5,1,7,0.00
2013-8-14,69.5,61.5,53.6,62.0,57.5,51.9,96,87,60,29.99,29.95,3,0,7,0.25
2013-8-15,64.8,62.7,61.0,63.4,61.3,59.9,97,95,93,30.00,29.94,2,0,7,0.34
2013-8-16,70.4,62.2,57.3,63.7,60.3,56.2,97,94,76,30.08,29.98,3,1,5,0.00
2013-8-17,66.9,62.5,56.8,63.7,60.4,55.7,96,93,88,30.12,30.06,2,0,4,0.01
2013-8-18,71.5,64.1,56.2,64.4,60.1,55.1,97,87,73,30.16,30.08,4,1,7,0.00
2013-8-19,69.7,62.4,55.9,63.1,58.2,53.4,97,87,73,30.17,30.09,5,1,6,0.01
2013-8-20,76.5,62.1,50.0,60.5,55.2,48.3,96,79,54,30.15,30.02,4,1,6,0.00
2013-8-21,77.8,60.9,51.0,61.4,54.8,49.6,96,82,55,30.03,29.88,2,0,3,0.01
2013-8-22,64.2,57.8,50.8,58.7,54.9,49.4,96,90,81,29.95,29.89,3,0,4,0.00
2013-8-23,67.2,61.6,57.9,62.1,58.9,55.9,96,91,78,29.96,29.91,2,0,3,0.04
2013-8-24,65.7,60.7,57.1,60.4,58.2,55.6,97,91,83,29.93,29.90,4,1,6,0.00
2013-8-25,68.1,58.9,52.6,59.5,55.7,51.5,96,89,70,29.94,29.91,3,0,4,0.01
2013-8-26,70.5,59.7,54.1,59.9,56.3,52.7,96,89,60,29.96,29.90,8,1,12,0.44
2013-8-27,71.1,64.1,60.5,65.5,61.7,59.4,97,92,78,29.96,29.84,3,0,5,0.04
2013-8-28,71.1,65.2,62.4,65.7,62.5,61.0,96,91,80,29.92,29.83,3,0,5,0.10
2013-8-29,69.2,64.7,62.3,66.1,62.9,61.1,97,94,87,30.07,29.84,7,2,10,0.74
2013-8-30,71.5,64.5,57.3,64.4,61.6,55.9,97,91,75,30.17,30.06,5,1,7,0.03
2013-8-31,65.9,59.7,54.6,62.0,58.0,53.5,97,94,84,30.06,29.89,4,1,5,0.00
2013-9-1,77.1,65.6,57.5,62.1,58.7,56.4,97,80,53,29.94,29.85,4,1,6,0.01
2013-9-2,73.5,66.4,56.3,64.8,60.8,53.7,95,83,61,29.94,29.86,4,1,7,0.02
2013-9-3,72.4,63.4,55.8,62.6,58.2,53.2,93,84,67,30.02,29.94,5,0,7,0.00
2013-9-4,69.2,62.5,58.3,63.1,59.8,56.6,95,91,78,30.07,30.00,3,0,4,0.00
2013-9-5,65.6,62.5,60.7,62.8,60.9,59.0,97,94,89,30.05,30.01,7,1,9,0.42
2013-9-6,63.8,62.7,61.5,62.3,61.3,60.1,97,95,91,30.15,30.05,7,2,9,0.08
2013-9-7,73.6,62.9,55.4,66.0,60.3,54.6,98,91,76,30.12,29.98,6,1,9,0.01
2013-9-8,75.2,65.4,60.5,66.5,61.9,58.9,97,89,72,30.08,30.02,3,0,6,0.00
2013-9-9,74.4,64.6,58.8,65.2,60.8,56.8,97,88,71,30.06,29.95,3,0,6,0.00
2013-9-10,67.9,61.2,55.8,64.0,58.6,54.7,96,91,82,29.95,29.77,3,1,5,0.01
2013-9-11,67.9,62.9,56.3,62.2,59.1,54.8,96,87,79,30.01,29.77,4,1,7,0.00
2013-9-12,66.5,62.2,59.7,61.5,59.0,57.5,93,89,83,30.01,29.98,3,0,4,0.00
2013-9-13,65.6,62.6,60.2,61.3,59.8,58.5,95,91,85,30.00,29.88,1,0,3,0.00
2013-9-14,64.5,61.5,59.9,60.9,59.6,58.5,96,93,87,29.88,29.76,2,0,4,0.00
2013-9-15,64.5,61.1,59.6,61.6,59.7,58.3,97,95,90,29.89,29.76,6,0,6,0.15
2013-9-16,67.2,61.5,59.0,62.9,59.8,57.6,97,94,83,29.99,29.89,3,0,4,0.49
2013-9-17,66.6,60.3,55.1,60.5,57.3,53.4,96,90,77,30.02,29.90,4,1,6,0.05
2013-9-18,67.6,59.9,53.9,61.2,56.7,52.7,97,90,70,30.10,30.01,5,1,6,0.01
2013-9-19,75.7,59.9,48.8,60.3,53.8,47.4,97,82,50,30.01,29.79,4,0,5,0.01
2013-9-20,64.2,58.4,53.0,61.4,56.0,51.0,96,92,81,29.79,29.66,3,0,7,0.26
2013-9-21,64.2,59.1,54.1,60.5,56.8,53.0,97,92,81,29.78,29.68,3,0,5,0.25
2013-9-22,64.2,58.0,55.7,61.6,56.3,53.7,96,94,84,29.86,29.65,11,1,13,1.29
2013-9-23,59.8,56.4,51.9,58.5,55.2,51.1,97,96,93,30.01,29.85,4,0,4,1.28
2013-9-24,58.1,53.1,50.3,57.3,52.2,49.5,98,97,94,30.00,29.88,2,0,3,1.27
2013-9-25,61.2,53.6,47.8,53.9,50.5,47.0,98,90,70,30.06,29.88,5,1,8,0.05
2013-9-26,63.9,53.7,45.4,56.9,50.2,44.3,97,88,69,30.19,30.06,6,1,7,0.01
2013-9-27,60.7,54.3,47.0,59.8,53.0,45.6,97,95,93,30.19,29.90,6,1,9,1.47
2013-9-28,61.4,58.6,53.0,60.5,57.8,52.2,98,97,94,29.90,29.52,16,5,30,2.37
2013-9-29,60.4,56.5,52.8,59.5,54.4,48.3,98,93,69,29.67,29.37,17,6,30,2.11
2013-9-30,59.9,56.9,51.6,53.9,51.3,48.8,94,82,70,29.99,29.61,13,6,30,0.49
2013-10-1,60.0,53.3,49.2,53.8,49.5,47.0,96,88,68,30.19,29.96,6,1,20,0.74
2013-10-2,59.0,50.6,44.9,53.7,48.5,43.8,97,93,77,30.21,30.09,1,0,20,0.94
2013-10-3,60.0,50.1,41.1,52.6,46.7,40.0,97,89,73,30.44,30.21,4,1,7,0.01
2013-10-4,64.2,51.6,41.7,53.8,47.4,40.4,96,86,68,30.45,30.34,5,1,7,0.00
2013-10-5,66.6,54.0,44.3,59.1,50.0,42.8,95,87,61,30.34,30.11,3,0,6,0.01
2013-10-6,74.1,57.3,46.4,56.4,50.2,43.8,94,79,37,30.11,29.99,5,1,9,0.18
2013-10-7,60.8,56.4,53.7,54.7,52.2,48.9,96,86,72,30.16,30.00,10,2,13,0.49
2013-10-8,57.1,53.5,45.0,52.9,49.7,42.7,94,87,72,30.16,30.02,7,2,10,0.26
2013-10-9,61.8,50.0,40.8,53.0,45.8,39.7,97,86,68,30.12,29.99,3,0,5,0.01
2013-10-10,57.4,51.9,47.0,51.8,48.0,45.1,94,86,76,30.12,29.99,2,0,4,0.02
2013-10-11,58.2,51.1,45.2,51.6,47.7,43.6,95,88,75,30.17,30.11,4,0,6,0.00
2013-10-12,61.3,52.1,47.4,54.3,49.4,45.8,96,90,73,30.19,30.08,3,0,5,0.20
2013-10-13,65.4,51.5,41.7,56.0,47.2,40.6,97,86,62,30.32,30.19,4,1,7,0.02
2013-10-14,66.7,51.9,40.6,56.8,46.7,39.0,95,83,63,30.36,30.29,4,0,6,0.00
2013-10-15,71.5,56.3,47.6,55.8,46.3,40.2,91,71,44,30.33,30.15,4,0,6,0.00
2013-10-16,60.7,50.4,42.9,55.2,47.7,41.3,95,91,79,30.17,30.13,4,1,5,0.00
2013-10-17,62.3,50.8,43.2,56.4,48.6,41.9,97,92,79,30.23,30.15,4,0,6,0.01
2013-10-18,65.5,53.9,45.2,56.9,49.2,42.9,95,85,54,30.16,30.08,3,0,5,0.01
2013-10-19,58.9,50.8,43.1,54.2,47.9,41.1,95,90,74,30.16,30.10,4,1,6,0.00
2013-10-20,51.9,49.3,47.0,50.5,48.0,45.9,96,95,94,30.17,30.09,3,0,4,0.01
2013-10-21,59.1,51.2,41.9,54.9,49.0,40.8,97,93,84,30.09,29.97,3,0,5,0.01
2013-10-22,57.9,52.6,47.5,53.1,50.7,46.1,96,93,79,30.05,29.98,3,1,4,0.00
2013-10-23,53.4,51.2,48.8,52.0,50.0,47.7,96,96,94,30.04,30.00,3,0,4,0.01
2013-10-24,54.3,51.7,49.0,51.8,49.9,47.9,96,94,89,30.13,30.02,2,0,3,0.00
2013-10-25,61.0,52.9,49.1,54.4,50.2,47.4,95,91,77,30.27,30.14,2,0,3,0.00
2013-10-26,59.0,51.5,47.5,52.5,48.6,45.9,95,90,78,30.30,30.18,4,1,5,0.00
2013-10-27,61.9,52.6,46.3,52.8,48.1,43.5,97,85,63,30.20,29.86,5,1,6,0.10
2013-10-28,59.0,48.1,40.7,49.3,43.6,39.0,96,85,62,29.93,29.83,3,0,4,0.00
2013-10-29,60.2,46.4,36.8,48.1,39.3,34.3,93,78,47,30.07,29.93,4,0,6,0.01
2013-10-30,57.7,47.2,36.9,49.0,42.2,35.1,94,84,67,30.18,30.06,3,0,3,0.00
2013-10-31,55.9,53.2,50.0,54.5,50.5,43.0,96,91,66,30.28,30.16,3,0,3,0.15
2013-11-1,56.7,51.6,45.5,53.2,49.9,44.4,97,94,83,30.28,29.88,2,0,3,0.12
2013-11-2,56.0,52.1,48.1,52.4,47.5,42.0,96,85,67,30.08,29.74,14,4,15,0.45
2013-11-3,50.2,47.1,44.0,48.1,44.2,40.5,96,90,75,30.18,30.07,12,1,18,0.48
2013-11-4,51.4,48.8,45.0,50.6,47.7,43.9,97,96,96,30.17,30.08,1,0,2,0.77
2013-11-5,54.7,52.8,51.2,53.9,51.7,50.1,97,96,94,30.25,30.07,5,0,9,0.40
2013-11-6,56.7,53.9,51.1,55.9,53.1,50.1,97,97,96,30.28,30.06,1,0,2,0.39
2013-11-7,56.1,53.0,49.0,55.3,50.7,46.8,97,92,77,30.14,29.89,16,5,21,0.59
2013-11-8,55.1,49.0,43.6,52.7,47.7,42.5,97,95,88,30.21,30.13,1,0,2,0.27
2013-11-9,50.8,46.6,41.8,48.8,45.2,40.7,97,95,90,30.13,30.03,0,0,1,0.01
2013-11-10,62.0,52.0,46.2,54.9,48.7,44.3,95,89,76,30.08,30.02,1,0,2,0.00
2013-11-11,65.9,54.7,45.3,52.2,47.2,43.7,96,78,57,30.10,29.95,2,0,4,0.01
2013-11-12,60.5,55.6,52.9,56.0,53.1,45.6,96,92,59,30.44,30.04,4,1,7,0.30
2013-11-13,55.6,52.7,47.0,53.1,50.9,45.6,96,94,88,30.48,30.32,5,1,6,0.05
2013-11-14,51.7,47.5,42.8,49.5,46.0,41.5,97,94,89,30.32,30.13,2,0,3,0.13
2013-11-15,51.5,46.6,40.7,50.4,45.2,39.6,97,95,87,30.14,29.61,12,3,16,0.33
2013-11-16,52.1,49.3,46.6,48.7,44.2,40.4,97,83,68,29.87,29.60,9,3,13,0.15
2013-11-17,52.8,50.6,47.0,51.1,49.1,45.6,96,94,90,29.99,29.87,7,2,10,0.60
2013-11-18,54.3,52.5,51.1,53.0,51.2,50.0,97,95,92,29.97,29.70,12,4,21,0.82
2013-11-19,54.6,47.5,38.2,53.5,44.3,34.0,97,89,76,30.06,29.71,8,2,12,0.73
2013-11-20,49.4,38.6,32.2,37.0,31.7,26.6,94,77,57,30.41,30.06,2,0,6,0.00
2013-11-21,51.2,40.2,33.1,35.2,23.3,17.6,79,52,32,30.57,30.41,4,1,5,0.00
2013-11-22,61.4,46.3,33.2,28.6,20.5,15.2,64,38,20,30.52,30.33,2,1,4,0.00
2013-11-23,66.0,51.6,44.2,43.0,27.7,18.1,63,41,21,30.33,30.11,3,1,7,0.00
2013-11-24,61.8,46.6,39.2,45.9,34.0,27.5,83,62,42,30.24,30.10,5,1,6,0.00
2013-11-25,57.9,44.4,36.3,41.1,36.2,31.4,85,74,45,30.31,30.23,3,0,3,0.00
2013-11-26,55.2,46.5,38.4,48.2,39.8,33.2,88,78,62,30.25,30.03,2,0,3,0.00
2013-11-27,62.5,50.6,42.4,47.3,42.5,38.6,90,75,47,30.02,29.91,2,0,2,0.00
2013-11-28,55.6,46.0,40.7,47.0,39.9,35.8,92,80,54,30.21,29.99,4,0,5,0.00
2013-11-29,50.9,44.7,37.4,47.3,42.2,35.7,94,91,84,30.38,30.21,2,0,3,0.00
2013-11-30,52.1,49.1,44.9,50.8,47.4,43.3,96,94,89,30.39,30.22,4,0,6,0.16
2013-12-1,54.7,53.2,48.1,53.6,52.1,47.3,97,96,94,30.22,30.00,15,9,26,0.74
2013-12-2,48.6,43.6,37.3,47.3,39.4,34.9,97,86,63,30.07,29.99,8,3,12,0.29
2013-12-3,46.6,38.2,30.3,39.2,33.5,27.6,96,84,58,30.31,30.06,3,0,4,0.04
2013-12-4,43.8,33.0,27.6,28.5,24.0,19.4,90,71,44,30.34,30.29,2,0,4,0.00
2013-12-5,38.9,30.5,23.1,26.8,21.8,17.9,87,71,46,30.30,30.10,2,0,3,0.00
2013-12-6,33.7,30.7,25.3,24.2,19.8,14.6,74,64,51,30.12,29.96,4,1,9,0.00
2013-12-7,36.2,26.6,19.5,15.5,11.5,8.1,72,54,32,30.44,30.11,2,0,5,0.00
2013-12-8,32.5,24.9,16.2,23.1,17.4,11.6,84,73,57,30.58,30.44,1,0,2,0.00
2013-12-9,38.5,31.8,23.8,35.5,28.6,20.8,94,88,78,30.59,30.52,1,0,2,0.02
2013-12-10,44.3,37.7,33.2,42.2,36.2,31.9,96,94,91,30.54,30.38,1,0,2,0.03
2013-12-11,50.7,38.4,32.2,43.7,35.9,31.2,96,91,75,30.38,30.17,1,0,2,0.01
2013-12-12,48.8,44.4,33.5,46.7,42.0,31.0,96,91,79,30.19,30.08,3,1,4,0.75
2013-12-13,51.5,48.7,44.8,50.2,47.6,43.7,97,96,93,30.44,30.19,1,0,2,0.15
2013-12-14,50.8,45.5,41.3,48.8,44.1,40.2,97,95,88,30.45,30.37,1,0,2,0.01
2013-12-15,51.6,48.8,46.0,50.8,47.9,44.9,97,96,96,30.49,30.40,1,0,3,0.18
2013-12-16,52.9,45.4,41.1,49.7,44.1,40.0,98,95,85,30.48,30.23,3,0,5,0.01
2013-12-17,44.3,40.7,34.9,43.0,39.4,33.8,97,95,92,30.25,30.18,3,0,4,0.08
2013-12-18,48.2,42.7,34.3,45.1,40.9,32.8,97,93,86,30.18,30.08,4,1,6,0.08
2013-12-19,43.3,35.1,30.7,36.5,32.3,29.4,96,90,72,30.35,30.16,2,0,4,0.01
2013-12-20,50.2,41.8,34.1,49.3,40.2,31.8,97,94,89,30.24,29.90,6,1,9,1.12
2013-12-21,49.0,47.7,46.7,48.2,46.8,45.9,97,97,95,30.24,29.98,5,1,6,0.05
2013-12-22,51.0,49.7,48.5,50.3,49.0,47.7,98,97,97,30.37,30.30,1,0,1,0.29
2013-12-23,50.8,47.8,40.9,50.3,47.1,40.1,98,98,96,30.57,30.33,9,1,12,0.48
2013-12-24,49.4,40.5,35.1,45.4,39.3,34.1,98,96,84,30.62,30.48,2,0,3,0.02
2013-12-25,51.4,39.4,33.7,45.9,37.1,32.7,97,92,74,30.48,30.37,2,0,4,0.01
2013-12-26,52.5,41.6,35.2,47.0,39.5,33.9,96,92,80,30.37,30.20,2,1,3,0.01
2013-12-27,51.4,42.3,38.0,47.0,41.2,37.0,97,96,85,30.41,30.16,2,0,4,0.00
2013-12-28,49.2,40.8,34.6,43.9,38.8,33.6,97,93,78,30.52,30.41,4,0,5,0.01
2013-12-29,47.8,39.2,33.5,43.6,37.3,32.5,96,93,77,30.47,30.27,2,0,2,0.01
2013-12-30,50.7,44.8,40.7,46.5,41.4,38.8,94,88,76,30.27,30.16,2,0,4,0.00
2013-12-31,53.5,46.4,41.2,49.0,44.5,39.3,96,93,80,30.35,30.23,3,0,5,0.03
2014-1-1,50.5,45.3,41.2,47.8,43.8,40.4,97,95,87,30.35,30.22,2,0,3,0.01
2014-1-2,57.9,48.3,42.5,48.1,43.4,39.7,95,84,58,30.24,30.07,6,0,6,0.46